createdAt,value
2022-11-19T00:00:55.258Z,1.60
2022-11-19T00:03:38.171Z,1.60
2022-11-19T00:06:10.658Z,1.50
2022-11-19T00:08:40.996Z,1.50
2022-11-19T00:13:36.022Z,1.40
2022-11-19T00:16:06.739Z,1.40
2022-11-19T00:18:37.186Z,1.30
2022-11-19T00:21:07.591Z,1.20
2022-11-19T00:23:38.005Z,1.30
2022-11-19T00:26:13.742Z,1.40
2022-11-19T00:28:47.517Z,1.30
2022-11-19T00:31:17.134Z,1.40
2022-11-19T00:33:47.093Z,1.30
2022-11-19T00:36:21.311Z,1.40
2022-11-19T00:38:51.822Z,1.50
2022-11-19T00:41:38.634Z,1.40
2022-11-19T00:44:31.331Z,1.40
2022-11-19T00:47:08.536Z,1.30
2022-11-19T00:49:36.947Z,1.40
2022-11-19T00:52:08.802Z,1.40
2022-11-19T00:54:38.669Z,1.20
2022-11-19T00:57:08.951Z,1.20
2022-11-19T00:59:38.687Z,1.40
2022-11-19T01:02:08.092Z,1.30
2022-11-19T01:04:36.275Z,1.20
2022-11-19T01:07:08.966Z,1.30
2022-11-19T01:09:38.448Z,1.30
2022-11-19T01:12:09.449Z,1.20
2022-11-19T01:14:39.963Z,1.30
2022-11-19T01:17:08.266Z,1.20
2022-11-19T01:19:38.352Z,1.20
2022-11-19T01:22:07.031Z,1.10
2022-11-19T01:24:47.513Z,1.10
2022-11-19T01:27:18.980Z,1.20
2022-11-19T01:29:51.546Z,1.10
2022-11-19T01:32:23.610Z,1.00
2022-11-19T01:34:53.554Z,1.10
2022-11-19T01:37:25.078Z,1.20
2022-11-19T01:39:54.681Z,1.10
2022-11-19T01:42:47.141Z,1.10
2022-11-19T01:45:30.949Z,1.00
2022-11-19T01:48:04.642Z,1.00
2022-11-19T01:50:38.902Z,0.80
2022-11-19T01:53:09.428Z,0.70
2022-11-19T01:55:39.256Z,0.60
2022-11-19T01:58:17.004Z,0.70
2022-11-19T02:00:50.075Z,0.80
2022-11-19T02:03:21.894Z,0.80
2022-11-19T02:09:01.583Z,0.70
2022-11-19T02:12:22.191Z,0.60
2022-11-19T02:15:22.246Z,0.60
2022-11-19T02:18:33.672Z,0.30
2022-11-19T02:21:45.005Z,0.50
2022-11-19T02:24:44.025Z,0.50
2022-11-19T02:28:01.965Z,0.50
2022-11-19T02:30:42.878Z,0.60
2022-11-19T02:33:32.783Z,0.60
2022-11-19T02:36:19.524Z,0.60
2022-11-19T02:38:56.397Z,0.60
2022-11-19T02:41:41.234Z,0.60
2022-11-19T02:44:56.508Z,0.60
2022-11-19T02:47:38.495Z,0.60
2022-11-19T02:50:21.088Z,0.50
2022-11-19T02:52:55.068Z,0.50
2022-11-19T02:55:29.755Z,0.50
2022-11-19T02:58:09.755Z,0.60
2022-11-19T03:01:07.474Z,0.50
2022-11-19T03:06:46.166Z,0.50
2022-11-19T03:09:29.078Z,0.50
2022-11-19T03:12:09.826Z,0.60
2022-11-19T03:15:11.503Z,0.50
2022-11-19T03:18:16.226Z,0.40
2022-11-19T03:21:06.944Z,0.60
2022-11-19T03:23:50.220Z,0.50
2022-11-19T03:26:33.069Z,0.40
2022-11-19T03:29:17.288Z,0.40
2022-11-19T03:32:01.197Z,0.50
2022-11-19T03:34:32.879Z,0.50
2022-11-19T03:37:18.697Z,0.50
2022-11-19T03:39:50.954Z,0.50
2022-11-19T03:42:23.734Z,0.50
2022-11-19T03:45:15.439Z,0.40
2022-11-19T03:48:11.629Z,0.50
2022-11-19T03:51:10.505Z,0.60
2022-11-19T03:54:00.650Z,0.40
2022-11-19T03:56:30.402Z,0.40
2022-11-19T03:59:02.097Z,0.40
2022-11-19T04:01:31.295Z,0.40
2022-11-19T04:04:22.721Z,0.30
2022-11-19T04:06:52.539Z,0.40
2022-11-19T04:09:26.241Z,0.30
2022-11-19T04:11:56.738Z,0.30
2022-11-19T04:14:27.710Z,0.40
2022-11-19T04:16:59.307Z,0.40
2022-11-19T04:19:38.814Z,0.40
2022-11-19T04:22:13.833Z,0.40
2022-11-19T04:24:46.830Z,0.40
2022-11-19T04:27:18.878Z,0.40
2022-11-19T04:30:18.470Z,0.50
2022-11-19T04:32:48.067Z,0.50
2022-11-19T04:35:24.896Z,0.40
2022-11-19T04:38:01.523Z,0.50
2022-11-19T04:40:33.010Z,0.30
2022-11-19T04:43:18.723Z,0.40
2022-11-19T04:45:58.040Z,0.30
2022-11-19T04:48:28.367Z,0.40
2022-11-19T04:50:59.358Z,0.40
2022-11-19T04:53:28.753Z,0.40
2022-11-19T04:56:00.029Z,0.30
2022-11-19T04:58:28.498Z,0.40
2022-11-19T05:00:56.854Z,0.20
2022-11-19T05:03:25.470Z,0.20
2022-11-19T05:05:56.537Z,0.20
2022-11-19T05:08:37.308Z,0.20
2022-11-19T05:11:07.944Z,0.10
2022-11-19T05:13:37.761Z,0.10
2022-11-19T05:16:07.883Z,0.10
2022-11-19T05:19:03.135Z,0.20
2022-11-19T05:25:40.031Z,0.10
2022-11-19T05:28:37.485Z,0.10
2022-11-19T05:31:07.906Z,0.10
2022-11-19T05:33:40.175Z,0.00
2022-11-19T05:36:09.605Z,0.00
2022-11-19T05:38:37.968Z,-0.10
2022-11-19T05:41:07.926Z,-0.10
2022-11-19T05:43:38.400Z,-0.10
2022-11-19T05:46:07.512Z,-0.10
2022-11-19T05:48:38.104Z,0.10
2022-11-19T05:51:06.963Z,0.10
2022-11-19T05:53:39.069Z,0.00
2022-11-19T05:56:08.013Z,-0.10
2022-11-19T05:58:53.278Z,-0.10
2022-11-19T06:01:27.215Z,-0.10
2022-11-19T06:04:10.242Z,-0.10
2022-11-19T06:06:40.226Z,0.10
2022-11-19T06:09:09.829Z,0.10
2022-11-19T06:11:53.124Z,0.10
2022-11-19T06:14:25.092Z,0.00
2022-11-19T06:16:55.264Z,0.00
2022-11-19T06:19:23.977Z,0.10
2022-11-19T06:21:52.792Z,0.00
2022-11-19T06:24:22.588Z,0.00
2022-11-19T06:26:50.892Z,0.00
2022-11-19T06:29:23.443Z,0.10
2022-11-19T06:31:52.831Z,0.00
2022-11-19T06:34:48.962Z,0.10
2022-11-19T06:37:31.335Z,0.10
2022-11-19T06:40:03.739Z,-0.20
2022-11-19T06:42:40.280Z,-0.10
2022-11-19T06:45:17.645Z,0.00
2022-11-19T06:47:55.398Z,-0.10
2022-11-19T06:50:42.975Z,-0.10
2022-11-19T06:56:41.948Z,-0.20
2022-11-19T06:59:10.237Z,-0.30
2022-11-19T07:01:38.495Z,-0.30
2022-11-19T07:04:06.999Z,-0.30
2022-11-19T07:06:38.132Z,-0.20
2022-11-19T07:09:10.586Z,-0.20
2022-11-19T07:11:40.735Z,-0.30
2022-11-19T07:14:11.626Z,-0.10
2022-11-19T07:16:41.414Z,0.00
2022-11-19T07:19:11.395Z,-0.20
2022-11-19T07:21:42.392Z,-0.20
2022-11-19T07:24:12.348Z,-0.10
2022-11-19T07:26:42.327Z,-0.10
2022-11-19T07:29:14.569Z,-0.20
2022-11-19T07:37:50.434Z,0.00
2022-11-19T07:40:28.507Z,-0.10
2022-11-19T07:42:57.666Z,0.00
2022-11-19T07:45:32.553Z,-0.10
2022-11-19T07:51:24.455Z,0.00
2022-11-19T07:54:01.264Z,-0.10
2022-11-19T07:56:32.012Z,0.00
2022-11-19T08:02:22.976Z,0.00
2022-11-19T08:04:54.970Z,0.00
2022-11-19T08:07:23.343Z,0.00
2022-11-19T08:09:53.834Z,0.00
2022-11-19T08:12:23.376Z,0.10
2022-11-19T08:14:54.380Z,0.00
2022-11-19T08:17:41.731Z,0.00
2022-11-19T08:20:11.707Z,0.10
2022-11-19T08:22:42.240Z,0.00
2022-11-19T08:25:11.417Z,0.00
2022-11-19T08:27:39.686Z,0.00
2022-11-19T08:30:19.405Z,0.00
2022-11-19T08:33:46.668Z,0.10
2022-11-19T08:37:15.446Z,0.30
2022-11-19T08:40:54.529Z,0.20
2022-11-19T08:46:16.976Z,0.50
2022-11-19T08:48:45.588Z,0.60
2022-11-19T08:51:16.562Z,0.60
2022-11-19T08:53:45.546Z,0.80
2022-11-19T08:56:19.356Z,0.70
2022-11-19T08:58:47.970Z,0.50
2022-11-19T09:01:18.720Z,0.50
2022-11-19T09:03:58.659Z,0.60
2022-11-19T09:06:49.925Z,0.70
2022-11-19T09:09:20.002Z,0.70
2022-11-19T09:11:56.081Z,0.70
2022-11-19T09:14:27.614Z,0.90
2022-11-19T09:16:56.516Z,0.90
2022-11-19T09:19:30.431Z,0.90
2022-11-19T09:22:04.042Z,0.80
2022-11-19T09:24:39.312Z,0.90
2022-11-19T09:27:09.229Z,0.70
2022-11-19T09:29:39.853Z,0.90
2022-11-19T09:32:08.167Z,0.80
2022-11-19T09:34:40.006Z,1.00
2022-11-19T09:37:13.508Z,1.00
2022-11-19T09:39:41.874Z,1.00
2022-11-19T09:42:24.769Z,1.00
2022-11-19T09:45:02.436Z,1.10
2022-11-19T09:47:46.914Z,1.30
2022-11-19T09:50:23.462Z,1.20
2022-11-19T09:52:59.628Z,1.30
2022-11-19T09:55:32.973Z,1.20
2022-11-19T09:58:09.693Z,1.30
2022-11-19T10:00:38.406Z,1.20
2022-11-19T10:03:15.165Z,1.40
2022-11-19T10:05:58.212Z,1.50
2022-11-19T10:08:37.234Z,1.50
2022-11-19T10:18:20.952Z,1.80
2022-11-19T10:21:01.850Z,2.00
2022-11-19T10:23:44.183Z,2.10
2022-11-19T10:26:16.471Z,2.20
2022-11-19T10:28:52.660Z,2.00
2022-11-19T10:31:34.200Z,2.00
2022-11-19T10:34:08.775Z,2.00
2022-11-19T10:36:44.239Z,2.00
2022-11-19T10:39:20.159Z,1.90
2022-11-19T10:41:57.252Z,2.10
2022-11-19T10:44:40.349Z,1.90
2022-11-19T10:47:18.911Z,1.60
2022-11-19T10:49:52.076Z,1.80
2022-11-19T10:55:54.661Z,1.70
2022-11-19T10:58:27.052Z,1.70
2022-11-19T11:01:03.635Z,1.60
2022-11-19T11:04:00.666Z,1.40
2022-11-19T11:06:51.338Z,1.40
2022-11-19T11:09:30.872Z,1.30
2022-11-19T11:12:32.059Z,1.30
2022-11-19T11:15:13.001Z,1.10
2022-11-19T11:17:42.673Z,1.20
2022-11-19T11:20:28.851Z,1.10
2022-11-19T11:23:06.843Z,1.10
2022-11-19T11:25:35.706Z,1.00
2022-11-19T11:28:19.290Z,0.90
2022-11-19T11:30:54.854Z,0.80
2022-11-19T11:33:33.258Z,1.00
2022-11-19T11:36:11.046Z,1.10
2022-11-19T11:39:19.442Z,1.00
2022-11-19T11:44:34.458Z,1.10
2022-11-19T11:47:06.454Z,1.20
2022-11-19T11:50:13.605Z,1.10
2022-11-19T11:53:57.810Z,1.30
2022-11-19T12:00:32.165Z,1.40
2022-11-19T12:03:06.133Z,1.20
2022-11-19T12:12:44.450Z,1.40
2022-11-19T12:15:22.664Z,1.30
2022-11-19T12:18:00.427Z,1.20
2022-11-19T12:20:40.782Z,1.30
2022-11-19T12:23:23.860Z,1.40
2022-11-19T12:26:08.537Z,1.20
2022-11-19T12:28:55.680Z,1.10
2022-11-19T12:31:46.098Z,1.30
2022-11-19T12:34:49.265Z,1.30
2022-11-19T12:37:41.404Z,1.40
2022-11-19T12:40:56.924Z,1.50
2022-11-19T12:43:52.286Z,1.40
2022-11-19T12:47:01.935Z,1.70
2022-11-19T12:49:48.076Z,1.60
2022-11-19T12:53:08.114Z,1.40
2022-11-19T12:55:54.259Z,1.20
2022-11-19T12:58:35.449Z,1.30
2022-11-19T13:01:12.270Z,1.40
2022-11-19T13:03:53.558Z,1.20
2022-11-19T13:13:04.228Z,1.20
2022-11-19T13:16:29.264Z,1.30
2022-11-19T13:20:01.185Z,1.20
2022-11-19T13:22:35.257Z,1.40
2022-11-19T13:25:13.878Z,1.10
2022-11-19T13:27:54.341Z,0.90
2022-11-19T13:30:51.933Z,0.90
2022-11-19T13:33:43.488Z,0.70
2022-11-19T13:36:50.375Z,0.70
2022-11-19T13:40:03.535Z,0.70
2022-11-19T13:46:16.685Z,0.60
2022-11-19T13:52:53.397Z,0.70
2022-11-19T13:55:56.380Z,0.60
2022-11-19T14:05:56.778Z,0.30
2022-11-19T14:08:51.561Z,0.30
2022-11-19T14:12:12.048Z,0.30
2022-11-19T14:18:43.226Z,0.20
2022-11-19T14:28:43.218Z,0.10
2022-11-19T14:31:13.289Z,0.00
2022-11-19T14:34:01.516Z,0.00
2022-11-19T14:37:19.977Z,0.10
2022-11-19T14:44:12.688Z,0.30
2022-11-19T14:46:45.711Z,0.10
2022-11-19T14:49:42.066Z,0.10
2022-11-19T14:52:48.146Z,0.20
2022-11-19T14:55:30.179Z,0.00
2022-11-19T14:58:44.273Z,-0.10
2022-11-19T15:01:21.464Z,-0.10
2022-11-19T15:03:59.938Z,0.00
2022-11-19T15:06:57.019Z,-0.10
2022-11-19T15:10:10.363Z,-0.10
2022-11-19T15:12:51.541Z,0.00
2022-11-19T15:15:38.744Z,-0.20
2022-11-19T15:18:37.326Z,0.00
2022-11-19T15:21:22.989Z,-0.10
2022-11-19T15:27:18.963Z,-0.10
2022-11-19T15:30:11.325Z,-0.20
2022-11-19T15:32:56.731Z,-0.30
2022-11-19T15:35:47.478Z,-0.30
2022-11-19T15:38:52.318Z,-0.40
2022-11-19T15:41:37.068Z,-0.40
2022-11-19T15:44:23.889Z,-0.60
2022-11-19T15:47:17.755Z,-0.60
2022-11-19T15:50:32.202Z,-0.50
2022-11-19T15:53:19.030Z,-0.50
2022-11-19T15:56:06.182Z,-0.50
2022-11-19T15:58:55.136Z,-0.50
2022-11-19T16:01:23.834Z,-0.50
2022-11-19T16:04:04.469Z,-0.60
2022-11-19T16:06:34.600Z,-0.60
2022-11-19T16:09:06.008Z,-0.50
2022-11-19T16:11:56.850Z,-0.60
2022-11-19T16:14:44.874Z,-0.60
2022-11-19T16:20:29.643Z,-0.70
2022-11-19T16:23:05.807Z,-0.80
2022-11-19T16:25:37.681Z,-0.80
2022-11-19T16:28:10.029Z,-0.80
2022-11-19T16:30:46.339Z,-0.80
2022-11-19T16:33:52.091Z,-0.90
2022-11-19T16:36:54.892Z,-0.90
2022-11-19T16:43:08.147Z,-1.00
2022-11-19T16:45:57.880Z,-1.00
2022-11-19T16:56:01.412Z,-1.20
2022-11-19T16:58:32.223Z,-1.10
2022-11-19T17:01:20.186Z,-1.10
2022-11-19T17:07:10.837Z,-1.20
2022-11-19T17:09:48.659Z,-1.20
2022-11-19T17:12:27.315Z,-1.10
2022-11-19T17:15:32.416Z,-1.20
2022-11-19T17:18:16.857Z,-1.20
2022-11-19T17:20:57.286Z,-1.00
2022-11-19T17:23:26.951Z,-1.10
2022-11-19T17:25:59.741Z,-1.10
2022-11-19T17:28:39.028Z,-1.20
2022-11-19T17:32:00.387Z,-1.20
2022-11-19T17:35:02.711Z,-1.20
2022-11-19T17:40:37.728Z,-1.20
2022-11-19T17:43:53.241Z,-1.20
2022-11-19T17:46:24.710Z,-1.20
2022-11-19T17:48:54.193Z,-1.30
2022-11-19T17:51:26.753Z,-1.30
2022-11-19T17:53:58.530Z,-1.30
2022-11-19T17:56:29.234Z,-1.40
2022-11-19T17:59:00.593Z,-1.40
2022-11-19T18:01:37.332Z,-1.40
2022-11-19T18:04:14.573Z,-1.30
2022-11-19T18:10:03.997Z,-1.40
2022-11-19T18:12:45.091Z,-1.50
2022-11-19T18:15:17.558Z,-1.60
2022-11-19T18:17:46.074Z,-1.60
2022-11-19T18:20:14.906Z,-1.60
2022-11-19T18:22:44.693Z,-1.60
2022-11-19T18:25:19.197Z,-1.60
2022-11-19T18:27:54.440Z,-1.60
2022-11-19T18:30:22.965Z,-1.50
2022-11-19T18:32:56.467Z,-1.50
2022-11-19T18:35:36.971Z,-1.50
2022-11-19T18:38:12.797Z,-1.50
2022-11-19T18:40:45.482Z,-1.50
2022-11-19T18:43:37.458Z,-1.60
2022-11-19T18:46:10.233Z,-1.60
2022-11-19T18:48:40.007Z,-1.70
2022-11-19T18:51:11.352Z,-1.60
2022-11-19T18:53:42.305Z,-1.60
2022-11-19T18:56:24.297Z,-1.60
2022-11-19T18:58:53.794Z,-1.60
2022-11-19T19:01:31.585Z,-1.70
2022-11-19T19:04:08.823Z,-1.70
2022-11-19T19:06:50.230Z,-1.60
2022-11-19T19:09:28.843Z,-1.70
2022-11-19T19:12:25.947Z,-1.50
2022-11-19T19:14:59.523Z,-1.50
2022-11-19T19:17:27.830Z,-1.70
2022-11-19T19:19:56.146Z,-1.80
2022-11-19T19:22:26.867Z,-1.70
2022-11-19T19:24:58.317Z,-1.70
2022-11-19T19:27:32.094Z,-1.70
2022-11-19T19:30:02.504Z,-1.80
2022-11-19T19:33:00.827Z,-1.80
2022-11-19T19:35:31.114Z,-1.90
2022-11-19T19:38:15.797Z,-1.80
2022-11-19T19:40:44.956Z,-1.70
2022-11-19T19:43:17.535Z,-1.90
2022-11-19T19:45:47.045Z,-1.70
2022-11-19T19:54:43.107Z,-1.70
2022-11-19T19:57:15.740Z,-1.70
2022-11-19T19:59:50.956Z,-1.90
2022-11-19T20:02:20.196Z,-1.90
2022-11-19T20:04:56.088Z,-2.00
2022-11-19T20:07:24.688Z,-2.00
2022-11-19T20:09:53.060Z,-2.00
2022-11-19T20:12:24.258Z,-2.20
2022-11-19T20:14:59.354Z,-2.30
2022-11-19T20:17:32.746Z,-2.20
2022-11-19T20:20:01.232Z,-2.10
2022-11-19T20:22:42.058Z,-2.30
2022-11-19T20:25:11.656Z,-2.30
2022-11-19T20:27:44.072Z,-2.30
2022-11-19T20:30:15.003Z,-2.20
2022-11-19T20:32:49.287Z,-2.20
2022-11-19T20:35:34.670Z,-2.20
2022-11-19T20:38:16.603Z,-2.30
2022-11-19T20:41:01.329Z,-2.20
2022-11-19T20:43:52.752Z,-2.10
2022-11-19T20:50:29.038Z,-2.20
2022-11-19T20:53:26.617Z,-2.30
2022-11-19T20:56:04.925Z,-2.30
2022-11-19T20:58:35.701Z,-2.40
2022-11-19T21:01:25.725Z,-2.30
2022-11-19T21:04:00.113Z,-2.20
2022-11-19T21:06:31.071Z,-2.40
2022-11-19T21:08:59.540Z,-2.30
2022-11-19T21:11:36.953Z,-2.30
2022-11-19T21:14:13.865Z,-2.30
2022-11-19T21:16:42.442Z,-2.30
2022-11-19T21:19:11.596Z,-2.30
2022-11-19T21:21:41.723Z,-2.40
2022-11-19T21:24:10.161Z,-2.50
2022-11-19T21:26:45.118Z,-2.50
2022-11-19T21:29:15.275Z,-2.50
2022-11-19T21:31:48.439Z,-2.40
2022-11-19T21:34:19.441Z,-2.40
2022-11-19T21:36:50.823Z,-2.20
2022-11-19T21:39:20.630Z,-2.20
2022-11-19T21:41:49.899Z,-2.20
2022-11-19T21:44:21.469Z,-2.20
2022-11-19T21:46:51.757Z,-2.20
2022-11-19T21:49:21.512Z,-2.40
2022-11-19T21:51:53.301Z,-2.40
2022-11-19T21:54:22.635Z,-2.40
2022-11-19T21:56:50.914Z,-2.30
2022-11-19T21:59:26.541Z,-2.40
2022-11-19T22:01:59.285Z,-2.50
2022-11-19T22:07:46.827Z,-2.50
2022-11-19T22:10:17.924Z,-2.40
2022-11-19T22:12:47.817Z,-2.40
2022-11-19T22:15:16.979Z,-2.50
2022-11-19T22:17:45.679Z,-2.40
2022-11-19T22:20:20.962Z,-2.40
2022-11-19T22:26:45.121Z,-2.20
2022-11-19T22:29:14.701Z,-2.30
2022-11-19T22:31:43.628Z,-2.30
2022-11-19T22:34:13.341Z,-2.40
2022-11-19T22:36:43.057Z,-2.20
2022-11-19T22:39:13.695Z,-2.10
2022-11-19T22:41:43.423Z,-2.00
2022-11-19T22:44:11.967Z,-2.00
2022-11-19T22:46:40.171Z,-2.10
2022-11-19T22:49:12.985Z,-2.10
2022-11-19T22:51:42.443Z,-1.90
2022-11-19T22:54:19.832Z,-1.90
2022-11-19T22:56:52.735Z,-1.80
2022-11-19T22:59:26.940Z,-1.90
2022-11-19T23:01:55.306Z,-1.80
2022-11-19T23:04:26.094Z,-1.70
2022-11-19T23:06:54.500Z,-1.80
2022-11-19T23:09:23.290Z,-1.90
2022-11-19T23:12:12.205Z,-1.90
2022-11-19T23:14:42.979Z,-1.90
2022-11-19T23:17:11.408Z,-1.90
2022-11-19T23:19:41.181Z,-2.00
2022-11-19T23:22:09.434Z,-1.90
2022-11-19T23:24:39.070Z,-2.00
2022-11-19T23:27:09.213Z,-2.10
2022-11-19T23:29:37.607Z,-1.90
2022-11-19T23:32:07.715Z,-1.90
2022-11-19T23:34:38.287Z,-1.80
2022-11-19T23:37:12.521Z,-1.80
2022-11-19T23:39:49.504Z,-1.70
2022-11-19T23:42:19.509Z,-1.70
2022-11-19T23:44:49.073Z,-1.80
2022-11-19T23:47:17.454Z,-1.90
2022-11-19T23:49:47.387Z,-1.90
2022-11-19T23:52:15.708Z,-1.80
2022-11-19T23:54:43.930Z,-1.80
2022-11-19T23:57:13.504Z,-1.80
2022-11-19T23:59:44.089Z,-1.80
